Saint Charles, MO (63301)

7:39 AM CDT on July 30, 2015 (GMT -0500)
New Town St Charles | | Change Station
CLOSE
Current Station
Personal Weather Station
Location: Saint Charles, MO
Elevation: 446 ft
Nearby Weather Stations
Active Advisory: Flood Warning

Elev 446 ft 38.84 °N, 90.50 °W | Updated 13 minutes ago

Clear
Clear
72.1 °F
Feels Like 72 °F
N
3.2
Wind Variable Wind from West

Today
High -- | Low -- °F
--% Chance of Precip.
Yesterday
High -- | Low -- °F
Precip. -- in
6:01 AM 8:15 PM
Waxing Gibbous, 99% visible
Pressure 30.13 in
Visibility 10.0 miles
Clouds Clear
Heat Index 72 °F
Dew Point 66 °F
Humidity 81%
Rainfall 0.00 in
Snow Depth Not available.
UV 0 out of 12
Pollen 6.50 out of 12
Air Quality Not available.
Flu Activity Not available.
METAR KSET 301154Z AUTO 23003KT 10SM CLR 21/17 A3014 RMK AO2 SLP201 T02060172 10228 20189 53011

More Conditions Fewer Conditions

Pressure 30.13 in
Visibility 10.0 miles
Clouds Clear
Heat Index 72 °F
Dew Point 66 °F
Humidity 81%
Rainfall 0.00 in
Snow Depth Not available.
UV 0 out of 12
Pollen 6.50 out of 12
Air Quality Not available.
Flu Activity Not available.
METAR KSET 301154Z AUTO 23003KT 10SM CLR 21/17 A3014 RMK AO2 SLP201 T02060172 10228 20189 53011

More Conditions Fewer Conditions

10-Day Weather Forecast

×

Almanac

Astronomy

Jul. 30, 2015 Rise Set
Actual Time
Civil Twilight
Nautical Twilight
Astronomical Twilight
Moon
Length of Visible Light
Length of Day
Tomorrow will be .
, % of the Moon is Illuminated

Today's Extremes

State Highs State Lows

Community

WunderPhotos

Upload Photos

1,842,343 photos uploaded!

WunderBlogs® & News

Nearby

Air Quality

  Air Quality AQ Index Pollutant
Not available.

Snow Depth

Station Depth Elevation

Earthquake Activity

City Distance Mag. Time & Date
Minimum magnitude displayed is 2.5.

Coastal Water Temperatures

Place Temperature

Stations

Nearby Weather Stations

Station Location Temp. Windchill Dew Point Humidity Wind Precip. Elev Updated Type
                   
Flood Warning
Statement as of 8:29 PM CDT on July 29, 2015

The Flood Warning continues for
the Mississippi River at Grafton.
* At 8 PM Wednesday the stage was 19.5 feet.
* Flood stage is 18.0 feet.
* Minor flooding is occurring.
* The river will fall below flood stage by Friday before midnight.

                   Fld latest 7 a.M. Forecast
location stg obs stg 07/30 07/31 08/01 08/02 08/03

Mississippi River
Grafton 18.0 19.51 19.3 18.8 17.6 16.8 16.3




Lat... Lon 3881 9057 3888 9057 3899 9046 3895 9028
      3882 9048